createdAt,value
2019-04-03T00:00:49.785Z,8.46
2019-04-03T00:03:15.823Z,8.42
2019-04-03T00:05:42.179Z,8.42
2019-04-03T00:08:08.526Z,8.41
2019-04-03T00:10:37.374Z,8.43
2019-04-03T00:13:04.544Z,8.36
2019-04-03T00:15:31.211Z,8.34
2019-04-03T00:17:57.317Z,8.39
2019-04-03T00:20:23.767Z,8.36
2019-04-03T00:22:51.916Z,8.35
2019-04-03T00:25:18.205Z,8.34
2019-04-03T00:27:44.504Z,8.35
2019-04-03T00:30:12.112Z,8.31
2019-04-03T00:32:38.215Z,8.26
2019-04-03T00:35:05.674Z,8.28
2019-04-03T00:37:33.519Z,8.29
2019-04-03T00:39:59.961Z,8.26
2019-04-03T00:42:26.085Z,8.27
2019-04-03T00:44:52.747Z,8.26
2019-04-03T00:47:20.291Z,8.25
2019-04-03T00:49:46.492Z,8.21
2019-04-03T00:52:12.730Z,8.22
2019-04-03T00:54:38.838Z,8.19
2019-04-03T00:57:04.978Z,8.23
2019-04-03T00:59:31.088Z,8.20
2019-04-03T01:01:57.221Z,8.21
2019-04-03T01:04:23.580Z,8.19
2019-04-03T01:06:50.004Z,8.20
2019-04-03T01:09:16.207Z,8.14
2019-04-03T01:11:42.523Z,8.08
2019-04-03T01:14:08.873Z,8.12
2019-04-03T01:16:35.225Z,8.07
2019-04-03T01:19:01.426Z,8.13
2019-04-03T01:21:28.832Z,8.15
2019-04-03T01:23:55.051Z,8.10
2019-04-03T01:26:21.379Z,8.05
2019-04-03T01:28:47.759Z,8.04
2019-04-03T01:31:14.872Z,7.96
2019-04-03T01:33:41.714Z,8.06
2019-04-03T01:36:08.009Z,8.14
2019-04-03T01:38:34.216Z,8.16
2019-04-03T01:41:00.494Z,8.13
2019-04-03T01:43:26.706Z,8.13
2019-04-03T01:45:53.158Z,8.16
2019-04-03T01:48:19.584Z,8.28
2019-04-03T01:50:46.147Z,8.34
2019-04-03T01:53:12.368Z,8.29
2019-04-03T01:55:38.707Z,8.24
2019-04-03T01:58:06.736Z,8.06
2019-04-03T02:00:33.108Z,7.88
2019-04-03T02:03:01.757Z,7.75
2019-04-03T02:05:27.466Z,7.79
2019-04-03T02:07:53.904Z,7.74
2019-04-03T02:10:21.667Z,7.77
2019-04-03T02:12:50.388Z,7.73
2019-04-03T02:15:16.192Z,7.58
2019-04-03T02:17:42.623Z,7.80
2019-04-03T02:20:09.055Z,7.75
2019-04-03T02:22:35.487Z,7.78
2019-04-03T02:25:02.197Z,7.70
2019-04-03T02:27:29.999Z,7.72
2019-04-03T02:29:56.314Z,7.63
2019-04-03T02:32:24.168Z,7.55
2019-04-03T02:34:50.695Z,7.43
2019-04-03T02:37:17.627Z,7.34
2019-04-03T02:39:44.019Z,7.48
2019-04-03T02:42:10.490Z,7.54
2019-04-03T02:44:37.102Z,7.56
2019-04-03T02:47:03.409Z,7.57
2019-04-03T02:49:29.728Z,7.53
2019-04-03T02:51:56.060Z,7.48
2019-04-03T02:54:29.771Z,7.53
2019-04-03T02:56:57.167Z,7.57
2019-04-03T02:59:25.975Z,7.47
2019-04-03T03:01:51.920Z,7.47
2019-04-03T03:04:20.452Z,7.66
2019-04-03T03:06:46.798Z,7.73
2019-04-03T03:09:14.572Z,7.96
2019-04-03T03:11:40.979Z,8.12
2019-04-03T03:14:08.241Z,8.22
2019-04-03T03:16:35.098Z,7.89
2019-04-03T03:19:01.835Z,7.70
2019-04-03T03:21:29.507Z,7.67
2019-04-03T03:23:57.142Z,7.79
2019-04-03T03:26:23.719Z,7.79
2019-04-03T03:28:50.196Z,7.82
2019-04-03T03:31:16.510Z,7.80
2019-04-03T03:33:43.751Z,7.84
2019-04-03T03:36:18.486Z,7.89
2019-04-03T03:38:40.433Z,7.90
2019-04-03T03:41:07.367Z,8.03
2019-04-03T03:43:37.077Z,8.13
2019-04-03T03:46:02.170Z,8.21
2019-04-03T03:48:28.682Z,8.19
2019-04-03T03:50:57.524Z,8.18
2019-04-03T03:53:23.602Z,8.22
2019-04-03T03:55:50.241Z,8.39
2019-04-03T03:58:17.946Z,8.26
2019-04-03T04:00:44.474Z,8.25
2019-04-03T04:03:12.053Z,8.15
2019-04-03T04:05:38.415Z,8.20
2019-04-03T04:08:09.316Z,8.24
2019-04-03T04:10:37.119Z,8.12
2019-04-03T04:13:03.770Z,8.08
2019-04-03T04:15:31.872Z,8.05
2019-04-03T04:17:58.262Z,8.06
2019-04-03T04:20:24.578Z,8.08
2019-04-03T04:22:51.542Z,8.13
2019-04-03T04:25:18.064Z,8.12
2019-04-03T04:27:44.567Z,8.24
2019-04-03T04:30:14.494Z,8.26
2019-04-03T04:32:41.244Z,8.26
2019-04-03T04:35:10.358Z,8.30
2019-04-03T04:37:35.640Z,8.16
2019-04-03T04:40:02.235Z,8.31
2019-04-03T04:42:28.580Z,8.28
2019-04-03T04:44:54.708Z,8.13
2019-04-03T04:47:20.937Z,8.16
2019-04-03T04:49:47.287Z,8.16
2019-04-03T04:52:13.661Z,8.07
2019-04-03T04:54:42.798Z,8.07
2019-04-03T04:57:09.264Z,8.16
2019-04-03T04:59:36.996Z,8.18
2019-04-03T05:02:03.681Z,8.15
2019-04-03T05:04:30.073Z,8.01
2019-04-03T05:06:56.267Z,8.16
2019-04-03T05:09:22.516Z,8.18
2019-04-03T05:11:48.642Z,8.17
2019-04-03T05:14:15.805Z,8.11
2019-04-03T05:16:43.404Z,8.12
2019-04-03T05:19:15.875Z,8.12
2019-04-03T05:21:38.373Z,8.17
2019-04-03T05:24:12.064Z,8.24
2019-04-03T05:26:34.037Z,8.19
2019-04-03T05:29:00.187Z,8.23
2019-04-03T05:31:26.604Z,8.27
2019-04-03T05:33:52.759Z,8.25
2019-04-03T05:36:18.994Z,8.19
2019-04-03T05:38:45.155Z,8.17
2019-04-03T05:41:11.753Z,8.10
2019-04-03T05:43:38.052Z,8.14
2019-04-03T05:46:05.647Z,8.16
2019-04-03T05:48:32.496Z,8.14
2019-04-03T05:50:59.820Z,8.16
2019-04-03T05:53:26.039Z,8.23
2019-04-03T05:55:52.275Z,8.29
2019-04-03T05:58:18.537Z,8.24
2019-04-03T06:00:44.771Z,8.38
2019-04-03T06:03:11.074Z,8.34
2019-04-03T06:05:37.185Z,8.46
2019-04-03T06:08:03.819Z,8.47
2019-04-03T06:10:32.473Z,8.44
2019-04-03T06:12:59.277Z,8.37
2019-04-03T06:15:25.611Z,8.36
2019-04-03T06:17:54.266Z,8.35
2019-04-03T06:20:20.212Z,8.33
2019-04-03T06:22:47.910Z,8.45
2019-04-03T06:25:14.576Z,8.46
2019-04-03T06:27:43.024Z,8.46
2019-04-03T06:30:09.608Z,8.56
2019-04-03T06:32:35.941Z,8.62
2019-04-03T06:35:02.572Z,8.62
2019-04-03T06:37:29.005Z,8.56
2019-04-03T06:39:55.204Z,8.41
2019-04-03T06:42:21.439Z,8.21
2019-04-03T06:44:47.743Z,8.16
2019-04-03T06:47:15.780Z,8.21
2019-04-03T06:49:42.307Z,8.02
2019-04-03T06:52:08.725Z,7.82
2019-04-03T06:54:35.217Z,7.71
2019-04-03T06:57:01.483Z,7.89
2019-04-03T06:59:27.746Z,8.05
2019-04-03T07:01:53.985Z,7.86
2019-04-03T07:04:20.239Z,7.68
2019-04-03T07:06:46.565Z,7.78
2019-04-03T07:09:22.722Z,7.96
2019-04-03T07:11:43.301Z,8.06
2019-04-03T07:14:09.401Z,8.16
2019-04-03T07:16:38.072Z,8.04
2019-04-03T07:19:04.061Z,8.01
2019-04-03T07:21:30.242Z,8.14
2019-04-03T07:23:56.573Z,8.26
2019-04-03T07:26:22.828Z,8.35
2019-04-03T07:28:49.425Z,8.31
2019-04-03T07:31:15.781Z,8.27
2019-04-03T07:33:43.005Z,8.17
2019-04-03T07:36:11.565Z,7.95
2019-04-03T07:38:38.370Z,8.04
2019-04-03T07:41:04.691Z,8.23
2019-04-03T07:43:30.889Z,8.30
2019-04-03T07:45:57.359Z,8.26
2019-04-03T07:48:23.585Z,8.25
2019-04-03T07:50:49.869Z,8.44
2019-04-03T07:53:16.121Z,8.59
2019-04-03T07:55:44.195Z,8.79
2019-04-03T07:58:10.900Z,8.96
2019-04-03T08:00:38.540Z,9.09
2019-04-03T08:03:05.561Z,9.20
2019-04-03T08:05:32.093Z,9.28
2019-04-03T08:07:58.288Z,9.55
2019-04-03T08:10:24.551Z,9.63
2019-04-03T08:12:50.868Z,9.78
2019-04-03T08:15:18.212Z,9.93
2019-04-03T08:17:44.526Z,9.79
2019-04-03T08:20:11.033Z,9.65
2019-04-03T08:22:37.389Z,9.65
2019-04-03T08:25:05.541Z,9.81
2019-04-03T08:27:31.758Z,9.88
2019-04-03T08:29:58.204Z,9.53
2019-04-03T08:32:24.422Z,9.55
2019-04-03T08:34:50.652Z,9.58
2019-04-03T08:37:28.402Z,9.63
2019-04-03T08:39:45.189Z,9.69
2019-04-03T08:42:11.571Z,9.64
2019-04-03T08:44:37.878Z,9.55
2019-04-03T08:47:04.272Z,9.72
2019-04-03T08:49:30.511Z,9.83
2019-04-03T08:51:56.828Z,9.83
2019-04-03T08:54:23.074Z,9.78
2019-04-03T08:56:49.480Z,9.62
2019-04-03T08:59:17.297Z,9.58
2019-04-03T09:01:43.679Z,9.29
2019-04-03T09:04:09.763Z,9.47
2019-04-03T09:06:36.287Z,9.62
2019-04-03T09:09:06.254Z,9.64
2019-04-03T09:11:34.089Z,9.74
2019-04-03T09:14:00.793Z,9.84
2019-04-03T09:16:28.782Z,9.78
2019-04-03T09:18:55.882Z,9.63
2019-04-03T09:21:22.198Z,9.55
2019-04-03T09:23:48.824Z,9.61
2019-04-03T09:26:15.389Z,9.44
2019-04-03T09:28:42.432Z,9.44
2019-04-03T09:31:09.323Z,9.45
2019-04-03T09:33:35.899Z,9.44
2019-04-03T09:36:04.397Z,9.58
2019-04-03T09:38:30.316Z,9.62
2019-04-03T09:40:56.738Z,9.37
2019-04-03T09:43:23.261Z,9.46
2019-04-03T09:45:49.538Z,9.41
2019-04-03T09:48:15.663Z,9.19
2019-04-03T09:50:42.190Z,8.59
2019-04-03T09:53:08.496Z,8.54
2019-04-03T09:55:36.943Z,8.72
2019-04-03T09:58:04.210Z,8.91
2019-04-03T10:00:30.788Z,8.97
2019-04-03T10:02:56.820Z,9.00
2019-04-03T10:05:24.174Z,8.90
2019-04-03T10:07:50.478Z,9.05
2019-04-03T10:10:17.096Z,8.76
2019-04-03T10:12:47.332Z,8.78
2019-04-03T10:15:11.892Z,8.92
2019-04-03T10:17:38.526Z,8.71
2019-04-03T10:20:06.787Z,8.69
2019-04-03T10:22:32.967Z,8.66
2019-04-03T10:25:00.557Z,8.82
2019-04-03T10:27:27.072Z,8.92
2019-04-03T10:29:55.687Z,8.76
2019-04-03T10:32:21.498Z,8.89
2019-04-03T10:34:47.964Z,8.82
2019-04-03T10:37:15.139Z,9.05
2019-04-03T10:39:44.250Z,9.01
2019-04-03T10:42:10.184Z,9.04
2019-04-03T10:44:36.421Z,8.97
2019-04-03T10:47:02.744Z,9.07
2019-04-03T10:49:32.060Z,9.09
2019-04-03T10:51:58.425Z,8.87
2019-04-03T10:54:25.364Z,8.38
2019-04-03T10:56:52.286Z,8.42
2019-04-03T10:59:19.216Z,8.50
2019-04-03T11:01:45.657Z,8.46
2019-04-03T11:04:12.156Z,8.19
2019-04-03T11:06:38.451Z,8.31
2019-04-03T11:09:07.730Z,8.19
2019-04-03T11:11:37.021Z,8.11
2019-04-03T11:14:06.689Z,8.04
2019-04-03T11:16:32.660Z,7.97
2019-04-03T11:19:04.520Z,8.11
2019-04-03T11:21:26.915Z,7.94
2019-04-03T11:23:53.696Z,7.88
2019-04-03T11:26:24.338Z,7.97
2019-04-03T11:28:49.933Z,7.65
2019-04-03T11:31:25.932Z,7.59
2019-04-03T11:33:46.005Z,7.16
2019-04-03T11:36:12.706Z,6.97
2019-04-03T11:38:39.205Z,7.14
2019-04-03T11:41:12.809Z,7.30
2019-04-03T11:43:33.566Z,7.38
2019-04-03T11:46:00.304Z,7.48
2019-04-03T11:48:27.812Z,7.54
2019-04-03T11:50:57.055Z,7.53
2019-04-03T11:53:22.146Z,7.57
2019-04-03T11:55:48.736Z,7.51
2019-04-03T11:58:15.089Z,7.57
2019-04-03T12:00:43.292Z,7.71
2019-04-03T12:03:11.347Z,7.74
2019-04-03T12:05:37.730Z,7.74
2019-04-03T12:08:03.979Z,7.68
2019-04-03T12:10:30.279Z,7.70
2019-04-03T12:12:56.597Z,7.69
2019-04-03T12:15:22.904Z,7.77
2019-04-03T12:17:49.748Z,7.83
2019-04-03T12:20:16.580Z,7.68
2019-04-03T12:22:43.195Z,7.58
2019-04-03T12:25:09.482Z,7.55
2019-04-03T12:27:36.639Z,7.63
2019-04-03T12:30:07.942Z,7.88
2019-04-03T12:32:38.449Z,7.62
2019-04-03T12:35:04.829Z,7.84
2019-04-03T12:37:31.352Z,7.85
2019-04-03T12:39:58.225Z,7.89
2019-04-03T12:42:25.802Z,7.82
2019-04-03T12:44:54.727Z,7.84
2019-04-03T12:47:20.441Z,7.80
2019-04-03T12:49:46.975Z,7.54
2019-04-03T12:52:13.348Z,7.81
2019-04-03T12:54:39.671Z,7.63
2019-04-03T12:57:06.016Z,7.55
2019-04-03T12:59:32.191Z,7.58
2019-04-03T13:01:58.550Z,7.74
2019-04-03T13:04:25.821Z,7.54
2019-04-03T13:06:52.716Z,7.50
2019-04-03T13:09:19.501Z,7.48
2019-04-03T13:11:45.807Z,7.49
2019-04-03T13:14:22.648Z,7.47
2019-04-03T13:16:41.786Z,7.35
2019-04-03T13:19:08.441Z,7.48
2019-04-03T13:21:34.986Z,7.42
2019-04-03T13:24:01.278Z,7.46
2019-04-03T13:26:27.745Z,7.51
2019-04-03T13:28:54.466Z,7.76
2019-04-03T13:31:20.955Z,7.81
2019-04-03T13:33:47.167Z,7.91
2019-04-03T13:36:13.713Z,7.95
2019-04-03T13:38:40.218Z,7.80
2019-04-03T13:41:07.950Z,8.17
2019-04-03T13:43:34.753Z,8.35
2019-04-03T13:46:03.856Z,9.03
2019-04-03T13:48:29.225Z,9.63
2019-04-03T13:50:56.420Z,9.70
2019-04-03T13:53:25.055Z,9.23
2019-04-03T13:55:51.160Z,8.98
2019-04-03T13:58:20.589Z,9.26
2019-04-03T14:00:57.834Z,9.32
2019-04-03T14:03:15.871Z,9.53
2019-04-03T14:05:43.956Z,9.87
2019-04-03T14:08:12.239Z,10.28
2019-04-03T14:10:38.823Z,9.97
2019-04-03T14:13:05.072Z,9.18
2019-04-03T14:15:31.256Z,9.06
2019-04-03T14:17:59.184Z,9.15
2019-04-03T14:20:25.967Z,9.11
2019-04-03T14:22:52.312Z,8.73
2019-04-03T14:25:22.165Z,8.50
2019-04-03T14:27:46.802Z,8.51
2019-04-03T14:30:13.241Z,8.42
2019-04-03T14:32:40.044Z,8.64
2019-04-03T14:35:35.162Z,8.76
2019-04-03T14:37:35.186Z,8.85
2019-04-03T14:40:01.582Z,9.17
2019-04-03T14:42:28.418Z,9.06
2019-04-03T14:44:54.853Z,9.08
2019-04-03T14:47:22.758Z,8.84
2019-04-03T14:49:49.082Z,8.87
2019-04-03T14:52:17.671Z,8.80
2019-04-03T14:54:43.935Z,8.89
2019-04-03T14:57:20.020Z,8.78
2019-04-03T14:59:38.524Z,8.93
2019-04-03T15:02:04.840Z,8.98
2019-04-03T15:04:36.127Z,8.84
2019-04-03T15:07:03.533Z,8.92
2019-04-03T15:09:28.738Z,8.75
2019-04-03T15:11:54.878Z,8.54
2019-04-03T15:14:22.177Z,8.60
2019-04-03T15:16:49.219Z,8.70
2019-04-03T15:19:15.562Z,8.84
2019-04-03T15:21:42.062Z,9.08
2019-04-03T15:24:08.954Z,9.25
2019-04-03T15:26:36.512Z,9.29
2019-04-03T15:29:03.625Z,9.14
2019-04-03T15:31:30.180Z,9.07
2019-04-03T15:33:56.754Z,9.25
2019-04-03T15:36:23.027Z,9.09
2019-04-03T15:38:49.921Z,8.88
2019-04-03T15:41:16.211Z,9.04
2019-04-03T15:43:45.596Z,9.11
2019-04-03T15:46:10.946Z,9.17
2019-04-03T15:48:39.890Z,8.88
2019-04-03T15:51:07.175Z,8.96
2019-04-03T15:53:33.723Z,8.78
2019-04-03T15:56:00.353Z,8.96
2019-04-03T15:58:27.299Z,9.08
2019-04-03T16:00:53.962Z,9.08
2019-04-03T16:03:20.777Z,9.27
2019-04-03T16:05:47.222Z,8.92
2019-04-03T16:08:14.044Z,8.87
2019-04-03T16:10:40.686Z,8.82
2019-04-03T16:13:07.014Z,9.07
2019-04-03T16:15:33.540Z,9.29
2019-04-03T16:18:00.007Z,9.12
2019-04-03T16:20:26.513Z,9.16
2019-04-03T16:22:52.863Z,8.95
2019-04-03T16:25:22.230Z,8.91
2019-04-03T16:27:48.800Z,8.97
2019-04-03T16:30:17.322Z,9.03
2019-04-03T16:32:43.615Z,9.10
2019-04-03T16:35:12.714Z,9.15
2019-04-03T16:37:38.465Z,9.25
2019-04-03T16:40:06.710Z,9.20
2019-04-03T16:42:33.248Z,9.12
2019-04-03T16:45:03.135Z,9.02
2019-04-03T16:47:28.020Z,9.13
2019-04-03T16:49:55.915Z,8.96
2019-04-03T16:52:22.531Z,8.97
2019-04-03T16:54:48.790Z,8.93
2019-04-03T16:57:15.287Z,8.89
2019-04-03T16:59:41.754Z,8.85
2019-04-03T17:02:08.167Z,8.90
2019-04-03T17:04:35.594Z,9.02
2019-04-03T17:07:03.323Z,9.01
2019-04-03T17:09:32.558Z,9.06
2019-04-03T17:11:58.251Z,9.09
2019-04-03T17:14:25.116Z,9.06
2019-04-03T17:16:51.928Z,8.94
2019-04-03T17:19:18.901Z,8.97
2019-04-03T17:21:45.295Z,9.01
2019-04-03T17:24:11.858Z,8.99
2019-04-03T17:26:47.859Z,9.08
2019-04-03T17:29:06.832Z,9.06
2019-04-03T17:31:33.323Z,9.01
2019-04-03T17:33:59.631Z,8.97
2019-04-03T17:36:25.855Z,8.99
2019-04-03T17:38:52.203Z,8.93
2019-04-03T17:41:18.300Z,8.92
2019-04-03T17:43:44.684Z,8.92
2019-04-03T17:46:11.025Z,8.86
2019-04-03T17:48:37.264Z,8.79
2019-04-03T17:51:03.616Z,8.89
2019-04-03T17:53:30.107Z,8.82
2019-04-03T17:55:56.336Z,8.75
2019-04-03T17:58:22.587Z,8.59
2019-04-03T18:00:51.677Z,8.56
2019-04-03T18:03:19.366Z,8.48
2019-04-03T18:05:45.080Z,8.45
2019-04-03T18:08:11.417Z,8.48
2019-04-03T18:10:37.662Z,8.44
2019-04-03T18:13:04.020Z,8.43
2019-04-03T18:15:32.920Z,8.25
2019-04-03T18:18:02.557Z,8.32
2019-04-03T18:20:27.561Z,8.35
2019-04-03T18:22:53.823Z,8.37
2019-04-03T18:25:20.177Z,8.40
2019-04-03T18:27:47.546Z,8.27
2019-04-03T18:30:14.267Z,8.31
2019-04-03T18:32:40.600Z,8.36
2019-04-03T18:35:07.504Z,8.31
2019-04-03T18:37:34.405Z,8.39
2019-04-03T18:40:01.047Z,8.41
2019-04-03T18:42:27.210Z,8.41
2019-04-03T18:44:53.323Z,8.75
2019-04-03T18:47:19.548Z,8.31
2019-04-03T18:49:45.659Z,7.63
2019-04-03T18:52:11.847Z,7.83
2019-04-03T18:54:38.064Z,7.69
2019-04-03T18:57:04.411Z,7.62
2019-04-03T18:59:30.663Z,7.70
2019-04-03T19:01:57.120Z,7.82
2019-04-03T19:04:23.333Z,7.77
2019-04-03T19:06:49.693Z,7.78
2019-04-03T19:09:16.014Z,7.77
2019-04-03T19:11:42.258Z,7.79
2019-04-03T19:14:08.616Z,7.82
2019-04-03T19:16:45.052Z,7.75
2019-04-03T19:19:08.083Z,7.61
2019-04-03T19:21:32.616Z,7.50
2019-04-03T19:23:58.941Z,7.57
2019-04-03T19:26:25.356Z,7.27
2019-04-03T19:28:51.551Z,7.20
2019-04-03T19:31:18.065Z,7.22
2019-04-03T19:33:45.395Z,7.13
2019-04-03T19:36:12.006Z,7.07
2019-04-03T19:38:38.224Z,7.14
2019-04-03T19:41:04.647Z,7.09
2019-04-03T19:43:30.974Z,7.13
2019-04-03T19:45:57.193Z,7.07
2019-04-03T19:48:23.851Z,7.04
2019-04-03T19:50:52.035Z,7.18
2019-04-03T19:53:18.344Z,7.20
2019-04-03T19:55:44.591Z,7.14
2019-04-03T19:58:10.857Z,7.01
2019-04-03T20:00:37.297Z,7.08
2019-04-03T20:03:03.544Z,7.20
2019-04-03T20:05:29.901Z,7.32
2019-04-03T20:07:58.606Z,7.35
2019-04-03T20:10:24.598Z,7.17
2019-04-03T20:12:51.144Z,7.17
2019-04-03T20:15:17.485Z,7.26
2019-04-03T20:17:44.626Z,7.32
2019-04-03T20:20:11.044Z,7.53
2019-04-03T20:22:38.294Z,7.40
2019-04-03T20:25:06.068Z,7.33
2019-04-03T20:27:32.480Z,7.24
2019-04-03T20:30:00.611Z,7.10
2019-04-03T20:32:26.867Z,7.21
2019-04-03T20:34:53.107Z,7.22
2019-04-03T20:37:19.407Z,7.17
2019-04-03T20:39:45.573Z,6.95
2019-04-03T20:42:11.793Z,7.24
2019-04-03T20:44:39.067Z,7.13
2019-04-03T20:47:05.396Z,7.14
2019-04-03T20:49:31.619Z,7.15
2019-04-03T20:51:57.841Z,7.00
2019-04-03T20:54:24.061Z,7.26
2019-04-03T20:56:57.612Z,6.61
2019-04-03T20:59:18.529Z,6.49
2019-04-03T21:01:44.749Z,6.35
2019-04-03T21:04:11.054Z,6.42
2019-04-03T21:06:37.639Z,6.49
2019-04-03T21:09:05.741Z,6.64
2019-04-03T21:11:34.547Z,6.65
2019-04-03T21:14:00.938Z,6.48
2019-04-03T21:16:33.142Z,6.47
2019-04-03T21:18:55.201Z,6.43
2019-04-03T21:21:21.535Z,6.40
2019-04-03T21:23:47.627Z,6.37
2019-04-03T21:26:13.805Z,6.52
2019-04-03T21:28:41.022Z,6.64
2019-04-03T21:31:08.550Z,6.73
2019-04-03T21:33:34.770Z,6.72
2019-04-03T21:36:01.266Z,6.67
2019-04-03T21:38:27.488Z,6.76
2019-04-03T21:40:55.717Z,6.67
2019-04-03T21:43:21.863Z,6.63
2019-04-03T21:45:48.105Z,6.40
2019-04-03T21:48:14.371Z,6.54
2019-04-03T21:50:40.523Z,6.64
2019-04-03T21:53:06.625Z,6.54
2019-04-03T21:55:34.694Z,6.45
2019-04-03T21:58:00.826Z,6.55
2019-04-03T22:00:58.553Z,6.65
2019-04-03T22:03:24.789Z,6.66
2019-04-03T22:05:50.858Z,6.56
2019-04-03T22:08:17.192Z,6.51
2019-04-03T22:10:43.387Z,6.49
2019-04-03T22:13:09.585Z,6.48
2019-04-03T22:15:37.038Z,6.40
2019-04-03T22:18:03.453Z,6.41
2019-04-03T22:20:30.119Z,6.45
2019-04-03T22:22:56.498Z,6.42
2019-04-03T22:25:22.707Z,6.53
2019-04-03T22:27:48.922Z,6.56
2019-04-03T22:30:15.134Z,6.61
2019-04-03T22:32:41.418Z,6.82
2019-04-03T22:35:07.737Z,6.58
2019-04-03T22:37:35.182Z,6.48
2019-04-03T22:40:04.484Z,6.45
2019-04-03T22:42:30.693Z,6.50
2019-04-03T22:44:56.810Z,6.41
2019-04-03T22:47:25.012Z,6.46
2019-04-03T22:49:51.018Z,6.58
2019-04-03T22:52:17.160Z,6.52
2019-04-03T22:54:43.973Z,6.57
2019-04-03T22:57:10.703Z,6.60
2019-04-03T22:59:36.818Z,6.48
2019-04-03T23:02:03.099Z,6.29
2019-04-03T23:04:29.316Z,6.41
2019-04-03T23:06:55.552Z,6.53
2019-04-03T23:09:24.739Z,6.57
2019-04-03T23:11:49.659Z,6.60
2019-04-03T23:14:17.032Z,6.54
2019-04-03T23:16:43.335Z,6.32
2019-04-03T23:19:09.544Z,6.66
2019-04-03T23:21:35.693Z,6.71
2019-04-03T23:24:02.074Z,6.80
2019-04-03T23:26:28.170Z,6.51
2019-04-03T23:28:54.284Z,6.49
2019-04-03T23:31:20.596Z,6.37
2019-04-03T23:33:47.796Z,6.18
2019-04-03T23:36:14.482Z,6.20
2019-04-03T23:38:40.605Z,6.24
2019-04-03T23:41:06.842Z,6.37
2019-04-03T23:43:32.980Z,6.40
2019-04-03T23:45:59.121Z,6.21
2019-04-03T23:48:25.300Z,6.12
2019-04-03T23:50:52.679Z,6.19
2019-04-03T23:53:19.423Z,6.21
2019-04-03T23:55:45.618Z,6.23
2019-04-03T23:58:11.798Z,6.30
